Time;durP1;ratioP1;P1;durP2;ratioP2;P2;SDS_P1;SDS_P2;PMS_P1;PMS_P2;Temp;Humidity;BMP_temperature;BMP_pressure;BME280_temperature;BME280_humidity;BME280_pressure;Samples;Min_cycle;Max_cycle;Signal;HPM_P1;HPM_P2
2023/12/28 00:00:27;;;;;;;1.90;1.55;;;9.00;94.60;;;;;;4972834;28;20511;-72
2023/12/28 00:02:52;;;;;;;2.88;1.60;;;9.20;94.30;;;;;;4961695;28;20106;-70
2023/12/28 00:05:18;;;;;;;2.45;1.60;;;9.20;94.10;;;;;;4966087;28;20055;-73
2023/12/28 00:07:44;;;;;;;1.55;1.35;;;9.30;93.90;;;;;;4960683;28;20023;-71
2023/12/28 00:10:10;;;;;;;2.63;1.40;;;9.30;94.00;;;;;;4967988;28;20035;-75
2023/12/28 00:12:35;;;;;;;2.03;1.13;;;9.20;93.90;;;;;;4963260;28;20034;-71
2023/12/28 00:15:01;;;;;;;3.03;1.55;;;9.20;93.90;;;;;;4964812;28;20031;-74
2023/12/28 00:17:26;;;;;;;1.80;1.33;;;9.20;93.90;;;;;;4952181;28;20055;-73
2023/12/28 00:19:52;;;;;;;2.22;1.50;;;9.20;93.80;;;;;;4972467;28;20055;-70
2023/12/28 00:22:18;;;;;;;2.17;1.42;;;9.20;93.80;;;;;;4966344;28;20134;-71
2023/12/28 00:24:43;;;;;;;2.83;1.58;;;9.10;93.90;;;;;;4960382;28;20107;-75
2023/12/28 00:27:09;;;;;;;2.65;1.55;;;9.00;93.90;;;;;;4971147;28;20106;-71
2023/12/28 00:29:38;;;;;;;2.42;1.40;;;9.00;93.90;;;;;;4958217;28;20031;-74
2023/12/28 00:32:05;;;;;;;3.80;1.60;;;8.90;94.00;;;;;;4961446;28;20023;-73
2023/12/28 00:34:30;;;;;;;2.60;1.40;;;8.80;94.20;;;;;;4960729;28;20067;-72
2023/12/28 00:36:56;;;;;;;2.10;1.40;;;8.80;94.30;;;;;;4960383;28;20059;-78
2023/12/28 00:39:22;;;;;;;1.83;1.42;;;8.70;94.30;;;;;;4963502;28;20034;-73
2023/12/28 00:41:47;;;;;;;2.72;1.70;;;8.60;94.30;;;;;;4962305;28;20699;-72
2023/12/28 00:44:13;;;;;;;3.53;1.27;;;8.50;94.80;;;;;;4971665;28;20050;-75
2023/12/28 00:46:38;;;;;;;1.98;1.33;;;8.40;94.50;;;;;;4963328;28;20034;-73
2023/12/28 00:49:04;;;;;;;2.28;1.55;;;8.40;94.80;;;;;;4965747;28;20027;-75
2023/12/28 00:51:29;;;;;;;2.33;1.40;;;8.30;94.90;;;;;;4968588;28;20038;-71
2023/12/28 00:53:55;;;;;;;2.38;1.40;;;8.30;94.90;;;;;;4968253;28;20358;-73
2023/12/28 00:56:21;;;;;;;2.60;1.55;;;8.20;95.00;;;;;;4960509;28;20122;-72
2023/12/28 00:58:47;;;;;;;1.92;1.30;;;8.10;95.20;;;;;;4964939;28;20027;-72
2023/12/28 01:01:12;;;;;;;1.70;1.35;;;8.00;95.80;;;;;;4962206;28;20357;-72
2023/12/28 01:03:38;;;;;;;3.13;1.67;;;7.90;96.40;;;;;;4945475;28;20038;-72
2023/12/28 01:06:06;;;;;;;2.95;1.50;;;7.80;96.60;;;;;;4966855;28;20031;-72
2023/12/28 01:08:33;;;;;;;2.08;1.35;;;7.60;96.10;;;;;;4963002;28;20028;-71
2023/12/28 01:10:59;;;;;;;2.03;1.42;;;7.60;96.40;;;;;;4967234;28;20023;-72
2023/12/28 01:13:25;;;;;;;2.50;1.73;;;7.50;96.70;;;;;;4961163;28;20024;-72
2023/12/28 01:15:51;;;;;;;1.77;1.48;;;7.50;96.30;;;;;;4962413;28;20054;-72
2023/12/28 01:18:16;;;;;;;3.58;1.33;;;7.60;96.30;;;;;;4959277;28;20027;-72
2023/12/28 01:20:42;;;;;;;2.55;1.70;;;7.60;96.20;;;;;;4963471;28;20038;-72
2023/12/28 01:23:07;;;;;;;2.00;1.48;;;7.60;96.30;;;;;;4964321;28;20031;-72
2023/12/28 01:25:34;;;;;;;1.90;1.40;;;7.60;97.10;;;;;;4962419;28;20039;-72
2023/12/28 01:27:59;;;;;;;2.38;1.75;;;7.50;97.20;;;;;;4968089;28;20073;-73
2023/12/28 01:30:26;;;;;;;2.25;1.35;;;7.60;96.30;;;;;;4963849;28;20027;-72
2023/12/28 01:32:51;;;;;;;2.25;1.70;;;7.50;96.30;;;;;;4964517;28;20382;-72
2023/12/28 01:35:17;;;;;;;1.88;1.42;;;7.50;96.70;;;;;;4961674;28;20488;-72
2023/12/28 01:37:42;;;;;;;1.85;1.30;;;7.40;97.20;;;;;;4964881;28;20027;-72
2023/12/28 01:40:09;;;;;;;2.13;1.40;;;7.20;97.20;;;;;;4964137;28;20023;-72
2023/12/28 01:42:35;;;;;;;2.28;1.50;;;7.10;97.40;;;;;;4963547;28;20102;-72
2023/12/28 01:45:01;;;;;;;2.90;1.73;;;7.00;97.60;;;;;;4964274;28;20031;-72
2023/12/28 01:47:27;;;;;;;3.38;1.60;;;7.00;97.50;;;;;;4964415;28;20565;-72
2023/12/28 01:49:53;;;;;;;2.47;1.70;;;7.00;97.20;;;;;;4965802;28;20023;-72
2023/12/28 01:52:20;;;;;;;1.90;1.35;;;7.00;97.30;;;;;;4961038;28;20033;-72
2023/12/28 01:54:45;;;;;;;4.68;1.50;;;7.00;97.50;;;;;;4965142;28;20126;-72
2023/12/28 01:57:13;;;;;;;3.15;1.20;;;7.00;97.60;;;;;;4963293;28;20791;-72
2023/12/28 01:59:39;;;;;;;1.95;1.40;;;7.00;97.90;;;;;;4965104;28;20019;-72
2023/12/28 02:02:06;;;;;;;3.30;1.77;;;6.80;98.20;;;;;;4964906;28;20396;-72
2023/12/28 02:04:32;;;;;;;2.05;1.25;;;6.80;97.60;;;;;;4963075;28;20023;-71
2023/12/28 02:06:59;;;;;;;3.15;1.38;;;6.80;97.80;;;;;;4963652;28;20479;-72
2023/12/28 02:09:25;;;;;;;1.95;1.17;;;6.80;97.70;;;;;;4963451;28;20027;-72
2023/12/28 02:11:51;;;;;;;1.73;1.20;;;6.80;97.60;;;;;;4961575;28;20049;-72
2023/12/28 02:14:17;;;;;;;2.63;1.40;;;7.00;97.10;;;;;;4963564;28;20027;-72
2023/12/28 02:16:49;;;;;;;2.83;1.45;;;7.30;97.20;;;;;;4961373;28;20059;-72
2023/12/28 02:19:43;;;;;;;2.78;1.58;;;7.40;98.00;;;;;;4960470;28;20034;-72
2023/12/28 02:22:10;;;;;;;2.15;1.55;;;7.40;97.90;;;;;;4952619;28;20084;-72
2023/12/28 02:25:07;;;;;;;2.92;1.80;;;7.20;98.00;;;;;;4958756;28;20026;-72
2023/12/28 02:27:42;;;;;;;1.98;1.42;;;7.10;98.20;;;;;;4962179;28;20080;-71
2023/12/28 02:30:09;;;;;;;3.25;1.75;;;7.00;98.40;;;;;;4966330;28;20517;-72
2023/12/28 02:33:14;;;;;;;3.60;1.42;;;6.90;98.70;;;;;;4965098;28;20035;-72
2023/12/28 02:35:47;;;;;;;3.95;1.77;;;6.70;98.70;;;;;;4954979;28;20488;-72
2023/12/28 02:38:15;;;;;;;3.00;1.85;;;6.60;99.10;;;;;;4956573;28;20373;-72
2023/12/28 02:40:46;;;;;;;3.40;1.42;;;6.40;99.40;;;;;;4964908;28;20491;-72
2023/12/28 02:43:12;;;;;;;3.70;1.60;;;6.40;98.90;;;;;;4968041;28;20031;-72
2023/12/28 02:45:39;;;;;;;4.03;1.73;;;6.30;99.30;;;;;;4969054;28;20031;-73
2023/12/28 02:48:05;;;;;;;4.80;1.40;;;6.30;99.40;;;;;;4962409;28;20381;-71
2023/12/28 02:50:32;;;;;;;2.08;1.48;;;6.30;98.90;;;;;;4971154;28;20395;-72
2023/12/28 02:52:58;;;;;;;1.92;1.23;;;6.40;98.60;;;;;;4974523;28;20035;-70
2023/12/28 02:55:24;;;;;;;2.83;1.52;;;6.50;98.60;;;;;;4964080;28;20053;-71
2023/12/28 02:57:50;;;;;;;2.33;1.55;;;6.50;98.80;;;;;;4963458;28;20019;-71
2023/12/28 03:00:16;;;;;;;3.42;1.30;;;6.50;98.80;;;;;;4972071;28;20090;-70
2023/12/28 03:02:42;;;;;;;2.10;1.25;;;6.60;99.10;;;;;;4965886;28;20030;-70
2023/12/28 03:05:08;;;;;;;3.50;1.63;;;6.60;98.70;;;;;;4967081;28;20460;-71
2023/12/28 03:07:34;;;;;;;1.98;1.27;;;6.60;98.70;;;;;;4964461;28;20034;-70
2023/12/28 03:10:01;;;;;;;2.08;1.50;;;6.60;98.50;;;;;;4969680;28;20023;-71
2023/12/28 03:12:27;;;;;;;2.30;1.38;;;6.60;98.60;;;;;;4967576;28;20460;-71
2023/12/28 03:14:53;;;;;;;4.28;1.75;;;6.60;98.70;;;;;;4968349;28;20031;-71
2023/12/28 03:17:19;;;;;;;2.13;1.45;;;6.60;98.90;;;;;;4969879;28;20520;-71
2023/12/28 03:19:44;;;;;;;2.10;1.35;;;6.50;98.90;;;;;;4971072;28;20023;-72
2023/12/28 03:22:10;;;;;;;1.77;1.10;;;6.50;99.10;;;;;;4967002;28;20138;-71
2023/12/28 03:24:37;;;;;;;1.50;1.40;;;6.40;99.00;;;;;;4973282;28;20035;-70
2023/12/28 03:27:04;;;;;;;2.05;1.38;;;6.40;99.00;;;;;;4972700;28;20507;-71
2023/12/28 03:29:29;;;;;;;2.40;1.20;;;6.30;99.10;;;;;;4971485;28;20794;-70
2023/12/28 03:31:55;;;;;;;3.08;1.40;;;6.30;99.30;;;;;;4969491;28;20027;-70
2023/12/28 03:34:21;;;;;;;2.17;1.35;;;6.30;99.40;;;;;;4968129;28;20503;-71
2023/12/28 03:36:47;;;;;;;1.50;1.10;;;6.20;99.30;;;;;;4965893;28;20037;-73
2023/12/28 03:39:13;;;;;;;1.35;1.15;;;6.20;99.60;;;;;;4965407;28;20022;-70
2023/12/28 03:41:38;;;;;;;2.58;1.40;;;6.20;99.80;;;;;;4964946;28;20500;-70
2023/12/28 03:44:04;;;;;;;2.58;1.20;;;6.10;99.90;;;;;;4973180;28;20026;-71
2023/12/28 03:46:29;;;;;;;1.90;1.30;;;6.00;99.90;;;;;;4965395;28;20027;-70
2023/12/28 03:48:55;;;;;;;3.85;1.40;;;6.00;99.90;;;;;;4965522;28;20054;-70
2023/12/28 03:51:21;;;;;;;2.22;1.55;;;5.90;99.90;;;;;;4970495;28;20031;-70
2023/12/28 03:53:46;;;;;;;4.90;2.10;;;5.90;99.90;;;;;;4967965;28;20450;-70
2023/12/28 03:56:28;;;;;;;3.08;1.40;;;5.90;99.90;;;;;;4960360;28;20413;-71
2023/12/28 03:58:54;;;;;;;2.58;1.30;;;5.90;99.90;;;;;;4956244;28;20035;-70
2023/12/28 04:01:21;;;;;;;2.20;1.23;;;6.00;99.90;;;;;;4969133;28;20444;-70
2023/12/28 04:03:47;;;;;;;1.92;1.25;;;6.00;99.90;;;;;;4958435;28;20067;-71
2023/12/28 04:06:14;;;;;;;3.17;2.30;;;6.00;99.90;;;;;;4964590;28;20023;-71
2023/12/28 04:08:41;;;;;;;4.45;2.13;;;6.10;99.90;;;;;;4966051;28;20124;-70
2023/12/28 04:11:07;;;;;;;3.47;2.35;;;6.00;99.90;;;;;;4969199;28;20031;-70
2023/12/28 04:13:32;;;;;;;4.90;2.65;;;6.00;99.90;;;;;;4961838;28;20090;-70
2023/12/28 04:15:58;;;;;;;5.57;2.78;;;5.90;99.90;;;;;;4967264;28;20102;-71
2023/12/28 04:18:23;;;;;;;3.45;2.20;;;5.90;99.90;;;;;;4973517;28;20465;-71
2023/12/28 04:20:49;;;;;;;3.15;2.13;;;5.90;99.90;;;;;;4969938;28;20102;-71
2023/12/28 04:23:15;;;;;;;3.70;2.50;;;5.80;99.90;;;;;;4958358;28;20031;-72
2023/12/28 04:25:41;;;;;;;3.88;2.67;;;5.70;99.90;;;;;;4966428;28;20455;-71
2023/12/28 04:28:07;;;;;;;5.75;2.22;;;5.60;99.90;;;;;;4970552;28;20054;-71
2023/12/28 04:30:32;;;;;;;4.45;1.92;;;5.60;99.90;;;;;;4965827;28;20090;-70
2023/12/28 04:32:58;;;;;;;4.20;2.05;;;5.60;99.90;;;;;;4968481;28;20039;-71
2023/12/28 04:35:24;;;;;;;3.15;1.75;;;5.70;99.90;;;;;;4971414;28;20031;-71
2023/12/28 04:37:49;;;;;;;2.15;1.40;;;5.70;99.90;;;;;;4957586;28;20023;-71
2023/12/28 04:40:15;;;;;;;3.63;2.10;;;5.90;99.90;;;;;;4962445;28;20024;-73
2023/12/28 04:42:41;;;;;;;2.63;1.45;;;6.00;99.90;;;;;;4964831;28;20126;-71
2023/12/28 04:45:08;;;;;;;2.20;1.48;;;6.20;99.90;;;;;;4968190;28;20106;-71
2023/12/28 04:47:33;;;;;;;3.13;1.40;;;6.40;99.90;;;;;;4960828;28;20035;-70
2023/12/28 04:49:59;;;;;;;2.38;1.40;;;6.60;99.90;;;;;;4965143;28;20151;-71
2023/12/28 04:52:24;;;;;;;3.13;1.20;;;6.80;99.70;;;;;;4972188;28;20027;-72
2023/12/28 04:54:50;;;;;;;2.20;1.27;;;7.10;99.30;;;;;;4961695;28;20624;-71
2023/12/28 04:57:16;;;;;;;2.95;1.70;;;7.30;99.90;;;;;;4964471;28;20047;-70
2023/12/28 04:59:42;;;;;;;3.63;2.00;;;7.30;99.90;;;;;;4961973;28;20026;-71
2023/12/28 05:02:08;;;;;;;2.72;1.80;;;7.20;99.90;;;;;;4972560;28;20027;-71
2023/12/28 05:04:38;;;;;;;5.63;2.30;;;7.10;99.90;;;;;;4960114;28;20106;-71
2023/12/28 05:07:03;;;;;;;1.70;1.60;;;7.10;99.90;;;;;;4966260;28;20044;-72
2023/12/28 05:09:29;;;;;;;4.65;1.98;;;7.10;99.90;;;;;;4968945;28;20468;-71
2023/12/28 05:11:54;;;;;;;2.72;1.60;;;7.10;99.90;;;;;;4968037;28;20027;-72
2023/12/28 05:14:20;;;;;;;3.55;1.48;;;7.10;99.90;;;;;;4967568;28;20042;-72
2023/12/28 05:16:46;;;;;;;3.60;1.55;;;7.10;99.90;;;;;;4961909;28;20130;-71
2023/12/28 05:19:11;;;;;;;2.03;1.23;;;7.20;99.90;;;;;;4969142;28;20047;-72
2023/12/28 05:21:37;;;;;;;1.58;1.13;;;7.30;99.90;;;;;;4966558;28;20058;-70
2023/12/28 05:24:03;;;;;;;1.65;1.27;;;7.60;99.90;;;;;;4956243;28;20027;-71
2023/12/28 05:26:28;;;;;;;3.28;1.45;;;7.80;99.70;;;;;;4970326;28;20034;-70
2023/12/28 05:28:54;;;;;;;3.08;1.00;;;8.00;99.50;;;;;;4970942;28;20062;-70
2023/12/28 05:31:19;;;;;;;2.80;1.30;;;8.20;99.50;;;;;;4963587;28;20606;-72
2023/12/28 05:33:45;;;;;;;2.47;1.25;;;8.30;99.50;;;;;;4965872;28;20047;-71
2023/12/28 05:36:11;;;;;;;2.47;1.42;;;8.40;99.50;;;;;;4972760;28;20078;-71
2023/12/28 05:38:36;;;;;;;2.50;1.40;;;8.40;99.50;;;;;;4964761;28;20063;-71
2023/12/28 05:41:02;;;;;;;2.30;1.13;;;8.50;99.60;;;;;;4963694;28;20078;-71
2023/12/28 05:43:27;;;;;;;2.05;1.35;;;8.50;99.30;;;;;;4967418;28;20065;-71
2023/12/28 05:45:53;;;;;;;2.33;1.50;;;8.60;99.20;;;;;;4972461;28;20035;-71
2023/12/28 05:48:18;;;;;;;2.75;1.60;;;8.80;99.10;;;;;;4963319;28;20050;-72
2023/12/28 05:50:44;;;;;;;2.00;0.80;;;9.00;99.10;;;;;;4965351;28;20089;-72
2023/12/28 05:53:13;;;;;;;2.83;1.48;;;9.00;99.10;;;;;;4975217;28;20029;-72
2023/12/28 05:55:43;;;;;;;2.80;1.47;;;9.20;99.90;;;;;;4976226;28;20102;-73
2023/12/28 05:58:09;;;;;;;3.30;1.23;;;9.30;98.60;;;;;;4972753;28;20151;-71
2023/12/28 06:00:36;;;;;;;1.75;1.20;;;9.40;98.50;;;;;;4989191;28;20090;-72
2023/12/28 06:03:02;;;;;;;1.35;1.23;;;9.30;98.60;;;;;;4967966;28;20023;-72
2023/12/28 06:05:28;;;;;;;1.58;1.17;;;9.30;98.70;;;;;;4963543;28;20496;-74
2023/12/28 06:07:53;;;;;;;2.20;1.30;;;9.30;98.90;;;;;;4962762;28;20059;-71
2023/12/28 06:10:19;;;;;;;1.90;1.23;;;9.20;99.10;;;;;;4964882;28;20027;-72
2023/12/28 06:12:45;;;;;;;1.52;1.02;;;9.20;99.30;;;;;;4958307;28;20031;-72
2023/12/28 06:15:11;;;;;;;1.30;0.98;;;9.20;99.50;;;;;;4966503;28;20049;-72
2023/12/28 06:17:36;;;;;;;1.77;1.10;;;9.20;99.70;;;;;;4967395;28;20079;-72
2023/12/28 06:20:02;;;;;;;1.27;0.85;;;9.30;99.80;;;;;;4966566;28;20106;-72
2023/12/28 06:22:28;;;;;;;1.27;1.10;;;9.30;99.90;;;;;;4962686;28;20078;-72
2023/12/28 06:24:54;;;;;;;4.22;1.73;;;9.30;99.90;;;;;;4964691;28;20035;-72
2023/12/28 06:27:20;;;;;;;1.88;1.33;;;9.30;99.90;;;;;;4972904;28;20022;-72
2023/12/28 06:29:46;;;;;;;4.78;1.20;;;9.30;99.90;;;;;;4961202;28;20053;-72
2023/12/28 06:32:12;;;;;;;2.38;1.30;;;9.40;99.90;;;;;;4967515;28;20457;-72
2023/12/28 06:34:37;;;;;;;1.58;1.25;;;9.50;99.90;;;;;;4973806;28;20508;-73
2023/12/28 06:37:03;;;;;;;1.05;0.82;;;9.50;99.90;;;;;;4963888;28;20031;-72
2023/12/28 06:39:29;;;;;;;3.30;1.60;;;9.60;99.90;;;;;;4965643;28;20035;-71
2023/12/28 06:41:54;;;;;;;2.22;1.13;;;9.60;99.90;;;;;;4965786;28;20027;-73
2023/12/28 06:44:20;;;;;;;2.15;1.30;;;9.60;99.90;;;;;;4968140;28;20043;-72
2023/12/28 06:46:45;;;;;;;1.77;1.23;;;9.70;99.90;;;;;;4960250;28;20527;-73
2023/12/28 06:49:11;;;;;;;2.47;1.30;;;9.80;99.90;;;;;;4969212;28;20126;-72
2023/12/28 06:51:37;;;;;;;2.03;1.08;;;9.70;99.90;;;;;;4969779;28;20487;-72
2023/12/28 06:54:03;;;;;;;1.60;1.20;;;9.80;99.90;;;;;;4969865;28;20487;-73
2023/12/28 06:56:28;;;;;;;1.33;1.02;;;9.80;99.90;;;;;;4957561;28;20078;-72
2023/12/28 06:58:54;;;;;;;1.13;1.02;;;9.90;99.90;;;;;;4967899;28;20034;-70
2023/12/28 07:01:19;;;;;;;2.92;1.33;;;9.90;99.90;;;;;;4970078;28;20027;-72
2023/12/28 07:03:45;;;;;;;1.90;0.90;;;10.00;99.90;;;;;;4961198;28;20031;-72
2023/12/28 07:06:11;;;;;;;2.53;1.30;;;10.00;99.90;;;;;;4965487;28;20492;-72
2023/12/28 07:08:36;;;;;;;1.92;1.10;;;10.00;99.90;;;;;;4971588;28;20487;-72
2023/12/28 07:11:02;;;;;;;1.98;1.20;;;10.00;99.90;;;;;;4962844;28;20034;-72
2023/12/28 07:13:28;;;;;;;1.80;1.08;;;10.00;99.90;;;;;;4964128;28;20030;-70
2023/12/28 07:15:53;;;;;;;2.55;1.35;;;10.10;99.90;;;;;;4962201;28;20047;-71
2023/12/28 07:18:19;;;;;;;2.35;1.15;;;10.10;99.90;;;;;;4971279;28;20779;-70
2023/12/28 07:20:45;;;;;;;2.17;1.33;;;10.10;99.90;;;;;;4959991;28;20388;-71
2023/12/28 07:23:10;;;;;;;2.55;1.30;;;10.10;99.90;;;;;;4962134;28;20039;-71
2023/12/28 07:25:36;;;;;;;1.88;1.38;;;10.00;99.90;;;;;;4963551;28;20484;-71
2023/12/28 07:28:01;;;;;;;2.17;1.15;;;10.00;99.90;;;;;;4966928;28;20464;-70
2023/12/28 07:30:28;;;;;;;1.77;1.00;;;10.00;99.90;;;;;;4969644;28;20105;-70
2023/12/28 07:32:53;;;;;;;2.33;1.38;;;9.90;99.90;;;;;;4962779;28;20135;-72
2023/12/28 07:35:19;;;;;;;2.97;1.30;;;9.90;99.90;;;;;;4966511;28;20085;-71
2023/12/28 07:37:45;;;;;;;3.63;1.40;;;9.90;99.90;;;;;;4958279;28;20023;-71
2023/12/28 07:40:12;;;;;;;2.25;1.25;;;9.90;99.90;;;;;;4963175;28;20022;-72
2023/12/28 07:42:38;;;;;;;1.80;1.40;;;9.90;99.90;;;;;;4944963;28;20031;-70
2023/12/28 07:45:04;;;;;;;2.97;1.30;;;9.90;99.90;;;;;;4971258;28;20034;-71
2023/12/28 07:47:30;;;;;;;3.42;1.52;;;9.90;99.90;;;;;;4957718;28;20035;-70
2023/12/28 07:49:55;;;;;;;3.90;1.50;;;9.90;99.90;;;;;;4967545;28;20086;-71
2023/12/28 07:52:21;;;;;;;3.00;1.42;;;9.90;99.90;;;;;;4964342;28;20508;-71
2023/12/28 07:54:47;;;;;;;2.72;1.20;;;9.90;99.90;;;;;;4961147;28;20031;-72
2023/12/28 07:57:12;;;;;;;2.33;1.33;;;9.90;99.90;;;;;;4965117;28;20050;-73
2023/12/28 07:59:38;;;;;;;2.40;1.15;;;9.80;99.90;;;;;;4970016;28;20031;-73
2023/12/28 08:02:03;;;;;;;10.32;4.95;;;9.80;99.90;;;;;;4965844;28;20029;-73
2023/12/28 08:04:29;;;;;;;11.30;4.68;;;9.80;99.90;;;;;;4962207;28;20037;-73
2023/12/28 08:06:55;;;;;;;12.88;4.80;;;9.60;99.90;;;;;;4963717;28;20376;-73
2023/12/28 08:09:20;;;;;;;9.95;4.82;;;9.40;99.90;;;;;;4971806;28;20038;-74
2023/12/28 08:11:46;;;;;;;12.10;5.30;;;9.20;99.90;;;;;;4964231;28;20027;-75
2023/12/28 08:14:11;;;;;;;9.82;4.57;;;9.00;99.90;;;;;;4962170;28;20121;-75
2023/12/28 08:16:37;;;;;;;14.77;5.78;;;8.80;99.90;;;;;;4970972;28;20057;-77
2023/12/28 08:19:03;;;;;;;13.60;5.40;;;8.70;99.90;;;;;;4964945;28;20019;-73
2023/12/28 08:21:28;;;;;;;10.38;5.07;;;8.50;99.90;;;;;;4965096;28;20039;-74
2023/12/28 08:23:54;;;;;;;11.73;5.72;;;8.40;99.90;;;;;;4960764;28;20032;-75
2023/12/28 08:26:20;;;;;;;10.10;4.82;;;8.30;99.90;;;;;;4967613;28;20401;-72
2023/12/28 08:28:45;;;;;;;12.50;5.35;;;8.20;99.90;;;;;;4968788;28;20035;-73
2023/12/28 08:31:12;;;;;;;14.73;5.22;;;8.20;99.90;;;;;;4963844;28;20026;-72
2023/12/28 08:33:40;;;;;;;11.85;5.25;;;8.20;99.90;;;;;;4967298;28;20483;-77
2023/12/28 08:36:09;;;;;;;11.98;5.00;;;8.20;99.90;;;;;;4971089;28;20030;-74
2023/12/28 08:38:35;;;;;;;9.75;5.32;;;8.20;99.90;;;;;;4963321;28;20027;-75
2023/12/28 08:41:03;;;;;;;8.82;4.65;;;8.20;99.90;;;;;;4968504;28;20392;-74
2023/12/28 08:43:29;;;;;;;9.50;5.05;;;8.20;99.90;;;;;;4969795;28;20030;-73
2023/12/28 08:45:55;;;;;;;10.55;4.70;;;8.30;99.90;;;;;;4960375;28;20461;-76
2023/12/28 08:48:21;;;;;;;11.70;5.43;;;8.30;99.90;;;;;;4961073;28;20068;-76
2023/12/28 08:50:46;;;;;;;10.50;4.90;;;8.30;99.90;;;;;;4964254;28;20451;-75
2023/12/28 08:53:12;;;;;;;11.77;4.60;;;8.30;99.90;;;;;;4966245;28;20035;-75
2023/12/28 08:55:37;;;;;;;13.38;4.45;;;8.40;99.90;;;;;;4954250;28;20070;-75
2023/12/28 08:58:03;;;;;;;11.32;5.57;;;8.40;99.90;;;;;;4964261;28;20047;-75
2023/12/28 09:00:29;;;;;;;11.13;4.75;;;8.50;99.90;;;;;;4958983;28;20027;-74
2023/12/28 09:02:54;;;;;;;11.93;5.65;;;8.60;99.90;;;;;;4964582;28;20062;-74
2023/12/28 09:05:20;;;;;;;12.40;5.70;;;8.60;99.90;;;;;;4963201;28;20034;-76
2023/12/28 09:07:46;;;;;;;10.27;5.47;;;8.70;99.90;;;;;;4960378;28;20036;-76
2023/12/28 09:10:12;;;;;;;10.68;5.43;;;8.80;99.90;;;;;;4965281;28;20476;-74
2023/12/28 09:12:40;;;;;;;13.75;5.90;;;8.80;99.90;;;;;;4962409;28;20027;-72
2023/12/28 09:15:06;;;;;;;8.40;4.70;;;8.80;99.90;;;;;;4961298;28;20034;-73
2023/12/28 09:17:32;;;;;;;8.85;4.68;;;8.80;99.90;;;;;;4959627;28;20054;-72
2023/12/28 09:19:58;;;;;;;8.88;4.57;;;8.80;99.90;;;;;;4961805;28;20464;-71
2023/12/28 09:22:24;;;;;;;11.30;4.97;;;8.80;99.90;;;;;;4964473;28;20051;-71
2023/12/28 09:24:50;;;;;;;9.50;4.68;;;8.80;99.90;;;;;;4962652;28;20019;-75
2023/12/28 09:27:15;;;;;;;7.22;4.38;;;8.70;99.90;;;;;;4959004;28;20030;-75
2023/12/28 09:29:41;;;;;;;7.07;3.83;;;8.80;99.90;;;;;;4962599;28;20032;-75
2023/12/28 09:32:06;;;;;;;7.38;4.30;;;8.80;99.90;;;;;;4959565;28;20050;-72
2023/12/28 09:34:33;;;;;;;7.63;4.20;;;8.80;99.90;;;;;;4960734;28;20114;-74
2023/12/28 09:36:58;;;;;;;5.75;4.00;;;8.80;99.90;;;;;;4965737;28;20468;-72
2023/12/28 09:39:24;;;;;;;8.05;4.35;;;8.80;99.90;;;;;;4961774;28;20031;-74
2023/12/28 09:42:06;;;;;;;8.73;4.28;;;8.90;99.90;;;;;;4959941;28;20883;-75
2023/12/28 09:44:32;;;;;;;8.23;4.20;;;9.00;99.90;;;;;;4964204;28;20026;-72
2023/12/28 09:46:59;;;;;;;8.63;4.05;;;9.00;99.90;;;;;;4964213;28;20030;-74
2023/12/28 09:49:25;;;;;;;5.85;3.20;;;9.10;99.90;;;;;;4961218;28;20056;-74
2023/12/28 09:51:51;;;;;;;5.28;2.53;;;9.20;99.90;;;;;;4960302;28;20503;-73
2023/12/28 09:54:18;;;;;;;3.47;2.17;;;9.30;99.90;;;;;;4961248;28;20039;-73
2023/12/28 09:56:45;;;;;;;3.38;1.80;;;9.50;99.90;;;;;;4963409;28;20118;-73
2023/12/28 09:59:11;;;;;;;2.58;1.70;;;9.70;99.90;;;;;;4962687;28;20034;-74
2023/12/28 10:01:37;;;;;;;4.45;1.40;;;9.80;99.90;;;;;;4959952;28;20026;-70
2023/12/28 10:04:03;;;;;;;2.47;1.42;;;10.00;99.90;;;;;;4957476;28;20110;-72
2023/12/28 10:06:29;;;;;;;3.13;1.50;;;10.20;99.90;;;;;;4961038;28;20038;-70
2023/12/28 10:08:55;;;;;;;5.45;1.75;;;10.30;99.90;;;;;;4944249;29;20035;-72
2023/12/28 10:11:21;;;;;;;2.15;1.30;;;10.40;99.90;;;;;;4968966;28;20031;-72
2023/12/28 10:13:49;;;;;;;2.50;1.20;;;10.60;99.90;;;;;;4958251;28;20019;-72
2023/12/28 10:16:16;;;;;;;5.55;1.75;;;10.70;99.90;;;;;;4965575;28;20055;-73
2023/12/28 10:18:43;;;;;;;2.97;1.67;;;10.90;99.90;;;;;;4966408;28;20369;-70
2023/12/28 10:21:09;;;;;;;5.13;1.85;;;10.90;99.90;;;;;;4961663;28;20464;-73
2023/12/28 10:23:35;;;;;;;3.50;1.40;;;11.00;99.90;;;;;;4953790;28;20070;-68
2023/12/28 10:26:00;;;;;;;2.63;1.52;;;11.00;99.90;;;;;;4965991;28;20054;-72
2023/12/28 10:28:26;;;;;;;1.52;1.40;;;11.00;99.90;;;;;;4963135;28;20028;-73
2023/12/28 10:30:58;;;;;;;4.35;1.70;;;11.00;99.90;;;;;;4957697;28;20027;-72
2023/12/28 10:33:23;;;;;;;2.67;1.20;;;11.00;99.90;;;;;;4966054;28;20476;-74
2023/12/28 10:35:52;;;;;;;2.75;1.38;;;11.00;99.90;;;;;;4966322;28;20026;-70
2023/12/28 10:38:19;;;;;;;1.50;1.30;;;11.10;99.90;;;;;;4956469;28;20135;-70
2023/12/28 10:40:48;;;;;;;3.08;1.60;;;11.00;99.90;;;;;;4963018;28;20093;-71
2023/12/28 10:43:17;;;;;;;2.63;1.67;;;11.00;99.90;;;;;;4971742;28;20086;-72
2023/12/28 10:45:46;;;;;;;2.72;1.50;;;11.00;99.90;;;;;;4955510;28;20027;-71
2023/12/28 10:48:13;;;;;;;3.60;1.63;;;11.00;99.90;;;;;;4952114;28;20094;-72
2023/12/28 10:50:42;;;;;;;2.25;1.42;;;11.00;99.90;;;;;;4959143;28;20468;-70
2023/12/28 10:53:46;;;;;;;2.60;1.67;;;11.00;99.90;;;;;;4970779;28;20527;-74
2023/12/28 10:56:36;;;;;;;2.70;1.40;;;11.10;99.90;;;;;;4957300;28;20361;-68
2023/12/28 10:59:13;;;;;;;3.55;1.80;;;11.20;99.90;;;;;;4966984;28;20023;-70
2023/12/28 11:01:40;;;;;;;3.47;1.58;;;;;;;;;;4966172;28;20480;-72
2023/12/28 11:04:15;;;;;;;2.58;1.30;;;;;;;;;;4956972;28;20480;-71
2023/12/28 11:06:44;;;;;;;2.58;1.38;;;;;;;;;;4964996;28;20092;-73
2023/12/28 11:09:11;;;;;;;2.78;1.48;;;11.80;99.90;;;;;;4972732;28;20038;-69
2023/12/28 11:11:38;;;;;;;2.17;1.15;;;11.60;99.90;;;;;;4972215;28;20110;-71
2023/12/28 11:14:04;;;;;;;2.65;1.38;;;11.60;99.90;;;;;;4959357;28;20082;-73
2023/12/28 11:16:31;;;;;;;3.40;1.40;;;11.50;99.90;;;;;;4969700;28;20477;-68
2023/12/28 11:18:58;;;;;;;2.55;1.40;;;11.60;99.90;;;;;;4974790;28;20110;-72
2023/12/28 11:21:24;;;;;;;2.28;1.10;;;11.50;99.90;;;;;;4964045;28;20111;-71
2023/12/28 11:23:50;;;;;;;2.22;1.20;;;11.50;99.90;;;;;;4956094;28;20015;-72
2023/12/28 11:26:20;;;;;;;2.70;1.20;;;11.50;99.90;;;;;;4971483;28;20431;-72
2023/12/28 11:28:46;;;;;;;1.20;1.10;;;11.50;99.90;;;;;;4962937;28;20114;-73
2023/12/28 11:31:15;;;;;;;3.45;1.23;;;11.50;99.90;;;;;;4974520;28;20122;-73
2023/12/28 11:33:49;;;;;;;2.08;1.02;;;11.40;99.90;;;;;;4964709;28;20416;-74
2023/12/28 11:36:37;;;;;;;4.32;1.13;;;11.40;99.90;;;;;;4956084;28;20035;-74
2023/12/28 11:39:05;;;;;;;1.60;1.27;;;11.40;99.90;;;;;;4963489;28;20032;-73
2023/12/28 11:41:35;;;;;;;2.28;1.42;;;11.30;99.90;;;;;;4966132;28;20039;-71
2023/12/28 11:44:02;;;;;;;;;;;11.40;99.90;;;;;;4973333;28;20384;-73
2023/12/28 11:46:29;;;;;;;1.95;1.30;;;11.30;99.90;;;;;;4967324;28;19906;-73
2023/12/28 11:49:06;;;;;;;4.47;1.70;;;11.30;99.90;;;;;;4964369;28;20077;-72
2023/12/28 11:51:35;;;;;;;1.80;1.30;;;11.30;99.90;;;;;;4969504;28;20447;-73
2023/12/28 11:54:03;;;;;;;2.63;1.30;;;11.30;99.90;;;;;;4972890;28;20061;-74
2023/12/28 11:56:34;;;;;;;2.35;1.40;;;11.30;99.90;;;;;;4964658;28;20543;-71
2023/12/28 11:59:00;;;;;;;3.92;1.30;;;11.20;99.90;;;;;;4969868;28;20035;-74
2023/12/28 12:01:26;;;;;;;1.73;1.00;;;11.20;99.90;;;;;;4971775;28;20033;-74
2023/12/28 12:03:51;;;;;;;1.42;1.00;;;11.20;99.90;;;;;;4958555;28;20019;-74
2023/12/28 12:06:18;;;;;;;1.50;1.05;;;11.30;99.90;;;;;;4967475;28;20027;-74
2023/12/28 12:08:47;;;;;;;5.07;1.25;;;11.30;99.90;;;;;;4971294;28;20030;-74
2023/12/28 12:11:13;;;;;;;1.75;1.35;;;11.30;99.90;;;;;;4961978;28;20085;-73
2023/12/28 12:13:38;;;;;;;3.33;1.10;;;11.40;99.90;;;;;;4961474;28;20433;-73
2023/12/28 12:16:05;;;;;;;1.90;1.20;;;11.40;99.90;;;;;;4962925;28;21134;-73
2023/12/28 12:18:32;;;;;;;1.45;1.10;;;11.40;99.90;;;;;;4951808;28;20480;-73
2023/12/28 12:20:58;;;;;;;2.15;1.50;;;11.40;99.90;;;;;;4954090;29;20039;-73
2023/12/28 12:23:24;;;;;;;2.28;1.13;;;11.50;99.90;;;;;;4952116;29;20077;-72
2023/12/28 12:25:51;;;;;;;1.92;1.20;;;11.60;99.90;;;;;;4938222;29;20142;-72
2023/12/28 12:28:17;;;;;;;2.58;1.17;;;11.60;99.90;;;;;;4945407;29;20023;-72
2023/12/28 12:31:09;;;;;;;2.97;1.60;;;11.60;99.90;;;;;;4942574;29;20023;-72
2023/12/28 12:33:35;;;;;;;2.33;1.25;;;11.70;99.90;;;;;;4951270;29;20098;-71
2023/12/28 12:36:00;;;;;;;2.80;1.70;;;11.60;99.90;;;;;;4954272;29;20484;-74
2023/12/28 12:38:26;;;;;;;3.72;1.80;;;11.60;99.90;;;;;;4953902;29;20138;-73
2023/12/28 12:40:52;;;;;;;5.40;1.48;;;11.60;99.90;;;;;;4953621;29;20073;-72
2023/12/28 12:43:19;;;;;;;2.10;1.42;;;11.60;99.90;;;;;;4946216;29;20055;-72
2023/12/28 12:45:45;;;;;;;1.73;1.27;;;11.60;99.90;;;;;;4949814;29;20085;-72
2023/12/28 12:48:11;;;;;;;1.80;1.20;;;11.60;99.90;;;;;;4947558;29;20031;-72
2023/12/28 12:50:37;;;;;;;2.47;1.52;;;;;;;;;;4944371;29;20066;-72
2023/12/28 12:53:05;;;;;;;4.80;1.45;;;;;;;;;;4953594;29;20046;-72